createdAt,value
2019-01-29T00:00:48.867Z,0.50
2019-01-29T00:03:17.536Z,0.60
2019-01-29T00:05:45.541Z,0.50
2019-01-29T00:08:13.664Z,0.50
2019-01-29T00:10:41.792Z,0.50
2019-01-29T00:13:09.898Z,0.60
2019-01-29T00:15:37.984Z,0.50
2019-01-29T00:18:06.060Z,0.50
2019-01-29T00:20:34.249Z,0.50
2019-01-29T00:23:02.330Z,0.50
2019-01-29T00:25:30.399Z,0.50
2019-01-29T00:27:58.460Z,0.50
2019-01-29T00:30:26.488Z,0.50
2019-01-29T00:32:54.556Z,0.50
2019-01-29T00:35:22.607Z,0.50
2019-01-29T00:37:52.144Z,0.50
2019-01-29T00:40:20.351Z,0.50
2019-01-29T00:42:48.356Z,0.50
2019-01-29T00:45:16.700Z,0.50
2019-01-29T00:47:44.783Z,0.60
2019-01-29T00:50:13.334Z,0.50
2019-01-29T00:52:42.532Z,0.50
2019-01-29T00:55:12.003Z,0.50
2019-01-29T00:57:40.406Z,0.50
2019-01-29T01:00:28.165Z,0.50
2019-01-29T01:02:56.252Z,0.60
2019-01-29T01:05:24.280Z,0.60
2019-01-29T01:07:52.307Z,0.60
2019-01-29T01:10:21.292Z,0.60
2019-01-29T01:12:49.342Z,0.60
2019-01-29T01:15:17.779Z,0.60
2019-01-29T01:17:45.903Z,0.60
2019-01-29T01:20:16.428Z,0.70
2019-01-29T01:22:50.630Z,0.70
2019-01-29T01:25:15.950Z,0.70
2019-01-29T01:27:44.056Z,0.70
2019-01-29T01:30:17.723Z,0.70
2019-01-29T01:32:45.796Z,0.70
2019-01-29T01:35:14.195Z,0.80
2019-01-29T01:37:43.316Z,0.80
2019-01-29T01:40:19.004Z,0.80
2019-01-29T01:42:47.096Z,0.80
2019-01-29T01:45:15.263Z,0.80
2019-01-29T01:47:43.352Z,0.80
2019-01-29T01:50:13.653Z,0.90
2019-01-29T01:52:41.697Z,0.90
2019-01-29T01:55:14.500Z,0.90
2019-01-29T01:57:42.551Z,1.00
2019-01-29T02:00:14.938Z,1.00
2019-01-29T02:02:42.951Z,1.00
2019-01-29T02:05:11.043Z,1.00
2019-01-29T02:07:39.158Z,1.00
2019-01-29T02:10:13.306Z,1.00
2019-01-29T02:12:41.490Z,1.00
2019-01-29T02:15:10.233Z,1.10
2019-01-29T02:17:38.398Z,1.10
2019-01-29T02:20:08.326Z,1.10
2019-01-29T02:22:36.562Z,1.10
2019-01-29T02:25:06.028Z,1.10
2019-01-29T02:27:34.094Z,1.20
2019-01-29T02:30:02.351Z,1.20
2019-01-29T02:32:30.527Z,1.20
2019-01-29T02:34:58.537Z,1.20
2019-01-29T02:37:26.642Z,1.20
2019-01-29T02:39:55.895Z,1.20
2019-01-29T02:42:24.104Z,1.20
2019-01-29T02:44:52.130Z,1.20
2019-01-29T02:47:20.260Z,1.20
2019-01-29T02:49:48.264Z,1.20
2019-01-29T02:52:16.327Z,1.20
2019-01-29T02:54:44.381Z,1.20
2019-01-29T02:57:12.480Z,1.20
2019-01-29T02:59:40.658Z,1.30
2019-01-29T03:02:08.729Z,1.30
2019-01-29T03:04:36.756Z,1.30
2019-01-29T03:07:04.868Z,1.20
2019-01-29T03:09:32.901Z,1.30
2019-01-29T03:12:01.066Z,1.30
2019-01-29T03:14:29.228Z,1.30
2019-01-29T03:16:57.285Z,1.30
2019-01-29T03:19:25.368Z,1.30
2019-01-29T03:21:53.433Z,1.40
2019-01-29T03:24:21.595Z,1.40
2019-01-29T03:26:49.636Z,1.40
2019-01-29T03:29:17.670Z,1.50
2019-01-29T03:31:45.713Z,1.60
2019-01-29T03:34:13.861Z,1.50
2019-01-29T03:36:42.313Z,1.60
2019-01-29T03:39:10.312Z,1.60
2019-01-29T03:41:38.363Z,1.60
2019-01-29T03:44:06.584Z,1.70
2019-01-29T03:46:34.704Z,1.60
2019-01-29T03:49:02.700Z,1.60
2019-01-29T03:51:30.791Z,1.60
2019-01-29T03:53:58.904Z,1.60
2019-01-29T03:56:27.063Z,1.60
2019-01-29T03:58:55.401Z,1.50
2019-01-29T04:01:23.577Z,1.50
2019-01-29T04:03:51.623Z,1.50
2019-01-29T04:06:19.706Z,1.60
2019-01-29T04:08:47.830Z,1.60
2019-01-29T04:11:15.851Z,1.60
2019-01-29T04:13:43.940Z,1.60
2019-01-29T04:16:12.208Z,1.60
2019-01-29T04:18:40.787Z,1.60
2019-01-29T04:21:08.920Z,1.60
2019-01-29T04:23:36.996Z,1.60
2019-01-29T04:26:05.060Z,1.60
2019-01-29T04:28:33.164Z,1.50
2019-01-29T04:31:01.409Z,1.60
2019-01-29T04:33:29.443Z,1.60
2019-01-29T04:35:57.514Z,1.60
2019-01-29T04:38:25.652Z,1.60
2019-01-29T04:40:54.068Z,1.70
2019-01-29T04:43:22.119Z,1.70
2019-01-29T04:45:50.208Z,1.70
2019-01-29T04:48:18.325Z,1.70
2019-01-29T04:50:46.532Z,1.80
2019-01-29T04:53:14.689Z,1.80
2019-01-29T04:55:42.865Z,1.80
2019-01-29T04:58:11.093Z,1.80
2019-01-29T05:00:39.305Z,1.80
2019-01-29T05:03:07.624Z,1.80
2019-01-29T05:05:35.658Z,1.80
2019-01-29T05:08:03.908Z,1.80
2019-01-29T05:10:31.942Z,1.80
2019-01-29T05:13:00.128Z,1.80
2019-01-29T05:15:28.341Z,1.80
2019-01-29T05:17:56.455Z,1.80
2019-01-29T05:20:24.597Z,1.80
2019-01-29T05:22:52.649Z,1.80
2019-01-29T05:25:21.205Z,1.80
2019-01-29T05:27:52.598Z,1.80
2019-01-29T05:30:23.579Z,1.80
2019-01-29T05:32:52.173Z,1.80
2019-01-29T05:35:20.774Z,1.80
2019-01-29T05:37:48.967Z,1.80
2019-01-29T05:40:19.341Z,1.80
2019-01-29T05:42:48.469Z,1.70
2019-01-29T05:45:18.688Z,1.70
2019-01-29T05:47:48.980Z,1.70
2019-01-29T05:50:19.454Z,1.70
2019-01-29T05:52:47.693Z,1.60
2019-01-29T05:55:16.682Z,1.60
2019-01-29T05:57:45.054Z,1.70
2019-01-29T06:00:20.763Z,1.60
2019-01-29T06:02:48.940Z,1.60
2019-01-29T06:05:17.829Z,1.70
2019-01-29T06:07:45.986Z,1.60
2019-01-29T06:10:14.251Z,1.60
2019-01-29T06:12:42.432Z,1.60
2019-01-29T06:15:14.474Z,1.60
2019-01-29T06:17:42.549Z,1.60
2019-01-29T06:20:18.241Z,1.60
2019-01-29T06:22:46.197Z,1.50
2019-01-29T06:25:14.316Z,1.50
2019-01-29T06:27:42.345Z,1.50
2019-01-29T06:30:13.276Z,1.50
2019-01-29T06:32:41.337Z,1.60
2019-01-29T06:35:12.968Z,1.60
2019-01-29T06:37:40.989Z,1.60
2019-01-29T06:40:12.018Z,1.60
2019-01-29T06:42:40.131Z,1.60
2019-01-29T06:45:12.452Z,1.60
2019-01-29T06:47:40.512Z,1.50
2019-01-29T06:50:12.524Z,1.50
2019-01-29T06:52:40.692Z,1.50
2019-01-29T06:55:13.147Z,1.50
2019-01-29T06:57:41.489Z,1.60
2019-01-29T07:00:14.686Z,1.60
2019-01-29T07:02:43.253Z,1.60
2019-01-29T07:05:11.565Z,1.60
2019-01-29T07:07:40.702Z,1.70
2019-01-29T07:10:11.409Z,1.70
2019-01-29T07:12:39.458Z,1.70
2019-01-29T07:15:13.154Z,1.70
2019-01-29T07:17:45.584Z,1.70
2019-01-29T07:20:14.005Z,1.80
2019-01-29T07:22:42.145Z,1.80
2019-01-29T07:25:11.264Z,1.80
2019-01-29T07:27:39.403Z,1.80
2019-01-29T07:30:11.342Z,1.80
2019-01-29T07:32:39.499Z,1.80
2019-01-29T07:35:08.300Z,1.80
2019-01-29T07:37:36.520Z,1.80
2019-01-29T07:40:05.995Z,1.80
2019-01-29T07:42:34.227Z,1.80
2019-01-29T07:45:03.441Z,1.80
2019-01-29T07:47:31.733Z,1.80
2019-01-29T07:49:59.765Z,1.90
2019-01-29T07:52:28.253Z,1.90
2019-01-29T07:54:56.469Z,1.90
2019-01-29T07:57:24.516Z,1.90
2019-01-29T07:59:52.675Z,1.90
2019-01-29T08:02:20.646Z,2.00
2019-01-29T08:04:49.081Z,2.00
2019-01-29T08:07:17.131Z,1.90
2019-01-29T08:09:45.879Z,1.90
2019-01-29T08:12:13.940Z,2.00
2019-01-29T08:14:42.004Z,2.00
2019-01-29T08:17:10.163Z,2.00
2019-01-29T08:19:38.247Z,2.00
2019-01-29T08:22:06.584Z,2.00
2019-01-29T08:24:34.636Z,2.00
2019-01-29T08:27:02.716Z,2.00
2019-01-29T08:29:30.821Z,2.00
2019-01-29T08:31:58.926Z,2.00
2019-01-29T08:34:26.938Z,2.10
2019-01-29T08:36:55.035Z,2.10
2019-01-29T08:39:23.154Z,2.00
2019-01-29T08:41:51.155Z,2.10
2019-01-29T08:44:19.335Z,2.00
2019-01-29T08:46:47.421Z,2.10
2019-01-29T08:49:15.524Z,2.10
2019-01-29T08:51:43.656Z,2.20
2019-01-29T08:54:11.827Z,2.20
2019-01-29T08:56:39.838Z,2.10
2019-01-29T08:59:07.952Z,2.20
2019-01-29T09:01:36.122Z,2.20
2019-01-29T09:04:04.301Z,2.20
2019-01-29T09:06:32.317Z,2.20
2019-01-29T09:09:00.363Z,2.20
2019-01-29T09:11:28.505Z,2.30
2019-01-29T09:13:56.618Z,2.30
2019-01-29T09:16:24.765Z,2.40
2019-01-29T09:18:53.121Z,2.40
2019-01-29T09:21:21.282Z,2.50
2019-01-29T09:23:49.475Z,2.70
2019-01-29T09:26:17.663Z,2.90
2019-01-29T09:28:46.292Z,3.00
2019-01-29T09:31:14.304Z,3.10
2019-01-29T09:33:42.398Z,3.30
2019-01-29T09:36:10.507Z,3.30
2019-01-29T09:38:38.548Z,3.20
2019-01-29T09:41:06.568Z,3.30
2019-01-29T09:43:34.901Z,3.30
2019-01-29T09:46:04.301Z,3.30
2019-01-29T09:48:33.596Z,3.30
2019-01-29T09:51:01.817Z,3.30
2019-01-29T09:53:29.986Z,3.50
2019-01-29T09:55:58.063Z,3.60
2019-01-29T09:58:26.131Z,3.80
2019-01-29T10:00:54.332Z,4.00
2019-01-29T10:03:22.594Z,4.00
2019-01-29T10:05:51.817Z,4.10
2019-01-29T10:08:19.873Z,4.10
2019-01-29T10:10:47.891Z,4.00
2019-01-29T10:13:17.607Z,4.00
2019-01-29T10:15:45.948Z,3.90
2019-01-29T10:18:16.371Z,3.70
2019-01-29T10:20:44.518Z,3.40
2019-01-29T10:23:12.531Z,3.20
2019-01-29T10:25:40.563Z,3.00
2019-01-29T10:28:08.622Z,2.90
2019-01-29T10:30:36.913Z,2.80
2019-01-29T10:33:04.927Z,2.90
2019-01-29T10:35:32.996Z,2.90
2019-01-29T10:38:01.061Z,3.00
2019-01-29T10:40:29.156Z,3.00
2019-01-29T10:42:57.635Z,3.10
2019-01-29T10:45:28.229Z,3.10
2019-01-29T10:47:56.366Z,3.10
2019-01-29T10:50:25.974Z,3.20
2019-01-29T10:52:54.653Z,3.30
2019-01-29T10:55:23.080Z,3.40
2019-01-29T10:57:51.451Z,3.30
2019-01-29T11:00:23.679Z,3.20
2019-01-29T11:02:52.108Z,3.20
2019-01-29T11:05:21.615Z,3.20
2019-01-29T11:07:49.758Z,3.40
2019-01-29T11:10:18.471Z,3.50
2019-01-29T11:12:46.478Z,3.60
2019-01-29T11:15:21.783Z,3.60
2019-01-29T11:17:49.810Z,3.60
2019-01-29T11:20:18.210Z,3.60
2019-01-29T11:22:46.982Z,3.60
2019-01-29T11:25:20.898Z,3.60
2019-01-29T11:27:49.294Z,3.60
2019-01-29T11:30:24.144Z,3.70
2019-01-29T11:32:52.795Z,3.80
2019-01-29T11:35:20.972Z,3.90
2019-01-29T11:37:49.206Z,4.00
2019-01-29T11:40:21.591Z,4.10
2019-01-29T11:42:49.756Z,4.20
2019-01-29T11:45:25.905Z,4.30
2019-01-29T11:47:54.015Z,4.30
2019-01-29T11:50:22.165Z,4.30
2019-01-29T11:52:50.376Z,4.20
2019-01-29T11:55:18.452Z,4.20
2019-01-29T11:57:46.917Z,4.10
2019-01-29T12:00:23.665Z,4.10
2019-01-29T12:02:52.045Z,4.10
2019-01-29T12:05:20.105Z,4.00
2019-01-29T12:07:48.399Z,4.10
2019-01-29T12:10:16.822Z,4.10
2019-01-29T12:12:44.984Z,4.10
2019-01-29T12:15:15.319Z,4.10
2019-01-29T12:17:43.523Z,4.10
2019-01-29T12:20:13.284Z,4.10
2019-01-29T12:22:41.350Z,3.90
2019-01-29T12:25:10.723Z,3.80
2019-01-29T12:27:38.738Z,3.80
2019-01-29T12:30:14.577Z,3.80
2019-01-29T12:32:43.763Z,3.80
2019-01-29T12:35:12.895Z,3.90
2019-01-29T12:37:41.032Z,4.00
2019-01-29T12:40:09.908Z,4.00
2019-01-29T12:42:38.314Z,4.00
2019-01-29T12:45:08.729Z,3.90
2019-01-29T12:47:36.887Z,3.90
2019-01-29T12:50:09.003Z,3.90
2019-01-29T12:52:43.392Z,3.90
2019-01-29T12:55:11.399Z,4.00
2019-01-29T12:57:39.647Z,4.00
2019-01-29T13:00:11.434Z,4.00
2019-01-29T13:02:39.594Z,4.00
2019-01-29T13:05:09.671Z,4.00
2019-01-29T13:07:37.826Z,4.00
2019-01-29T13:10:14.751Z,4.00
2019-01-29T13:12:42.756Z,4.10
2019-01-29T13:15:13.515Z,4.10
2019-01-29T13:17:41.683Z,4.10
2019-01-29T13:20:10.466Z,4.10
2019-01-29T13:22:38.553Z,4.10
2019-01-29T13:25:08.784Z,4.10
2019-01-29T13:27:36.918Z,4.10
2019-01-29T13:30:11.179Z,4.10
2019-01-29T13:32:39.221Z,4.10
2019-01-29T13:35:08.129Z,4.00
2019-01-29T13:37:36.211Z,4.00
2019-01-29T13:40:07.412Z,4.00
2019-01-29T13:42:35.489Z,4.00
2019-01-29T13:45:05.600Z,4.00
2019-01-29T13:47:33.687Z,4.10
2019-01-29T13:50:01.846Z,4.10
2019-01-29T13:52:30.040Z,4.10
2019-01-29T13:54:58.296Z,4.20
2019-01-29T13:57:26.325Z,4.10
2019-01-29T13:59:54.442Z,4.10
2019-01-29T14:02:22.575Z,4.00
2019-01-29T14:04:50.570Z,4.00
2019-01-29T14:07:18.691Z,4.10
2019-01-29T14:09:46.734Z,4.10
2019-01-29T14:12:14.792Z,4.10
2019-01-29T14:14:42.825Z,4.10
2019-01-29T14:17:11.017Z,4.00
2019-01-29T14:19:39.121Z,4.10
2019-01-29T14:22:08.336Z,4.10
2019-01-29T14:24:36.406Z,4.00
2019-01-29T14:27:04.537Z,4.00
2019-01-29T14:29:33.735Z,4.00
2019-01-29T14:32:01.910Z,4.00
2019-01-29T14:34:29.976Z,4.00
2019-01-29T14:36:58.171Z,3.90
2019-01-29T14:40:11.372Z,3.90
2019-01-29T14:42:39.525Z,3.80
2019-01-29T14:45:21.213Z,3.70
2019-01-29T14:47:49.398Z,3.60
2019-01-29T14:50:18.442Z,3.60
2019-01-29T14:52:47.687Z,3.60
2019-01-29T14:55:16.329Z,3.50
2019-01-29T14:57:44.389Z,3.50
2019-01-29T15:00:19.925Z,3.50
2019-01-29T15:02:47.964Z,3.50
2019-01-29T15:05:15.994Z,3.60
2019-01-29T15:07:44.407Z,3.70
2019-01-29T15:10:15.080Z,3.60
2019-01-29T15:12:43.329Z,3.50
2019-01-29T15:15:13.684Z,3.50
2019-01-29T15:17:46.521Z,3.50
2019-01-29T15:20:14.663Z,3.40
2019-01-29T15:22:42.901Z,3.30
2019-01-29T15:25:11.666Z,3.20
2019-01-29T15:27:40.151Z,3.20
2019-01-29T15:30:17.475Z,3.30
2019-01-29T15:32:45.813Z,3.30
2019-01-29T15:35:14.114Z,3.30
2019-01-29T15:37:42.169Z,3.30
2019-01-29T15:40:13.427Z,3.30
2019-01-29T15:42:41.640Z,3.30
2019-01-29T15:45:14.873Z,3.20
2019-01-29T15:47:44.451Z,3.20
2019-01-29T15:50:17.705Z,3.30
2019-01-29T15:52:48.725Z,3.20
2019-01-29T15:55:16.343Z,3.30
2019-01-29T15:57:44.889Z,3.30
2019-01-29T16:00:25.130Z,3.20
2019-01-29T16:02:57.850Z,3.20
2019-01-29T16:05:27.504Z,3.10
2019-01-29T16:07:55.901Z,3.10
2019-01-29T16:10:28.057Z,3.10
2019-01-29T16:12:56.146Z,3.10
2019-01-29T16:15:24.645Z,3.10
2019-01-29T16:17:52.729Z,3.00
2019-01-29T16:20:22.277Z,3.00
2019-01-29T16:22:50.529Z,2.90
2019-01-29T16:25:20.430Z,2.80
2019-01-29T16:27:48.734Z,2.80
2019-01-29T16:30:22.907Z,2.80
2019-01-29T16:32:51.090Z,2.90
2019-01-29T16:35:24.777Z,2.90
2019-01-29T16:37:53.883Z,2.90
2019-01-29T16:40:23.790Z,2.90
2019-01-29T16:42:53.643Z,2.80
2019-01-29T16:45:27.141Z,2.80
2019-01-29T16:47:56.954Z,2.90
2019-01-29T16:50:26.129Z,2.90
2019-01-29T16:52:55.928Z,2.90
2019-01-29T16:55:24.998Z,2.90
2019-01-29T16:57:53.373Z,2.90
2019-01-29T17:00:27.755Z,2.90
2019-01-29T17:02:56.609Z,2.80
2019-01-29T17:05:25.145Z,2.80
2019-01-29T17:07:53.759Z,2.70
2019-01-29T17:10:22.251Z,2.70
2019-01-29T17:12:50.327Z,2.70
2019-01-29T17:15:24.762Z,2.70
2019-01-29T17:17:53.859Z,2.70
2019-01-29T17:20:26.075Z,2.60
2019-01-29T17:22:54.471Z,2.60
2019-01-29T17:25:22.781Z,2.60
2019-01-29T17:27:51.164Z,2.60
2019-01-29T17:30:33.244Z,2.50
2019-01-29T17:33:01.330Z,2.50
2019-01-29T17:35:29.807Z,2.50
2019-01-29T17:37:57.851Z,2.50
2019-01-29T17:40:26.161Z,2.50
2019-01-29T17:42:56.513Z,2.50
2019-01-29T17:45:29.178Z,2.50
2019-01-29T17:47:57.659Z,2.40
2019-01-29T17:50:30.196Z,2.40
2019-01-29T17:52:58.240Z,2.40
2019-01-29T17:55:28.597Z,2.40
2019-01-29T17:57:56.668Z,2.40
2019-01-29T18:00:30.441Z,2.40
2019-01-29T18:02:58.466Z,2.40
2019-01-29T18:05:26.799Z,2.40
2019-01-29T18:07:54.969Z,2.30
2019-01-29T18:10:23.164Z,2.30
2019-01-29T18:12:51.503Z,2.30
2019-01-29T18:15:23.355Z,2.30
2019-01-29T18:17:51.524Z,2.30
2019-01-29T18:20:20.109Z,2.30
2019-01-29T18:22:48.307Z,2.30
2019-01-29T18:25:17.489Z,2.30
2019-01-29T18:27:45.696Z,2.30
2019-01-29T18:30:18.525Z,2.30
2019-01-29T18:32:46.615Z,2.30
2019-01-29T18:35:16.598Z,2.30
2019-01-29T18:37:44.634Z,2.30
2019-01-29T18:40:19.790Z,2.30
2019-01-29T18:42:47.912Z,2.30
2019-01-29T18:45:16.460Z,2.30
2019-01-29T18:47:44.515Z,2.30
2019-01-29T18:50:15.181Z,2.30
2019-01-29T18:52:43.295Z,2.20
2019-01-29T18:55:12.431Z,2.30
2019-01-29T18:57:40.637Z,2.30
2019-01-29T19:00:14.361Z,2.20
2019-01-29T19:02:42.417Z,2.20
2019-01-29T19:05:11.479Z,2.20
2019-01-29T19:07:39.677Z,2.20
2019-01-29T19:10:11.445Z,2.20
2019-01-29T19:12:39.503Z,2.20
2019-01-29T19:15:12.581Z,2.20
2019-01-29T19:17:41.834Z,2.10
2019-01-29T19:20:11.530Z,2.10
2019-01-29T19:22:39.619Z,2.00
2019-01-29T19:25:10.623Z,2.00
2019-01-29T19:27:38.689Z,1.90
2019-01-29T19:30:15.488Z,1.90
2019-01-29T19:32:43.554Z,1.80
2019-01-29T19:35:11.973Z,1.80
2019-01-29T19:37:40.191Z,1.80
2019-01-29T19:40:09.871Z,1.80
2019-01-29T19:42:37.995Z,1.80
2019-01-29T19:45:11.463Z,1.90
2019-01-29T19:47:39.974Z,1.90
2019-01-29T19:50:14.064Z,1.90
2019-01-29T19:52:42.159Z,1.80
2019-01-29T19:55:10.263Z,1.80
2019-01-29T19:57:38.395Z,1.80
2019-01-29T20:00:15.066Z,1.70
2019-01-29T20:02:43.306Z,1.70
2019-01-29T20:05:11.956Z,1.70
2019-01-29T20:07:40.599Z,1.70
2019-01-29T20:10:11.042Z,1.70
2019-01-29T20:12:39.088Z,1.70
2019-01-29T20:15:10.471Z,1.70
2019-01-29T20:17:39.106Z,1.70
2019-01-29T20:20:11.812Z,1.70
2019-01-29T20:22:39.943Z,1.80
2019-01-29T20:25:08.702Z,1.70
2019-01-29T20:27:36.762Z,1.70
2019-01-29T20:30:09.522Z,1.80
2019-01-29T20:32:37.611Z,1.70
2019-01-29T20:35:05.807Z,1.70
2019-01-29T20:37:33.916Z,1.70
2019-01-29T20:40:01.990Z,1.70
2019-01-29T20:42:30.158Z,1.60
2019-01-29T20:44:58.252Z,1.60
2019-01-29T20:47:26.334Z,1.60
2019-01-29T20:49:54.467Z,1.60
2019-01-29T20:52:22.620Z,1.50
2019-01-29T20:54:50.794Z,1.50
2019-01-29T20:57:19.667Z,1.40
2019-01-29T20:59:47.918Z,1.40
2019-01-29T21:02:16.014Z,1.40
2019-01-29T21:04:44.033Z,1.40
2019-01-29T21:07:12.159Z,1.40
2019-01-29T21:09:40.275Z,1.40
2019-01-29T21:12:08.362Z,1.40
2019-01-29T21:14:36.455Z,1.40
2019-01-29T21:17:04.689Z,1.40
2019-01-29T21:19:32.856Z,1.40
2019-01-29T21:22:01.102Z,1.30
2019-01-29T21:24:29.178Z,1.40
2019-01-29T21:26:57.287Z,1.40
2019-01-29T21:29:25.365Z,1.40
2019-01-29T21:31:54.189Z,1.30
2019-01-29T21:34:22.250Z,1.30
2019-01-29T21:36:50.409Z,1.30
2019-01-29T21:39:18.667Z,1.30
2019-01-29T21:41:46.824Z,1.30
2019-01-29T21:44:15.247Z,1.30
2019-01-29T21:46:43.363Z,1.30
2019-01-29T21:49:13.736Z,1.30
2019-01-29T21:51:41.401Z,1.20
2019-01-29T21:54:09.393Z,1.30
2019-01-29T21:56:37.446Z,1.30
2019-01-29T21:59:13.172Z,1.30
2019-01-29T22:01:36.436Z,1.70
2019-01-29T22:04:04.664Z,1.60
2019-01-29T22:06:32.904Z,1.50
2019-01-29T22:09:01.130Z,1.70
2019-01-29T22:11:29.211Z,1.50
2019-01-29T22:13:57.279Z,1.40
2019-01-29T22:16:25.657Z,1.30
2019-01-29T22:18:53.835Z,1.30
2019-01-29T22:21:22.051Z,1.20
2019-01-29T22:23:50.170Z,1.20
2019-01-29T22:26:18.213Z,1.10
2019-01-29T22:28:46.286Z,1.10
2019-01-29T22:31:14.348Z,1.10
2019-01-29T22:33:42.554Z,1.10
2019-01-29T22:36:10.626Z,1.10
2019-01-29T22:38:38.714Z,1.30
2019-01-29T22:41:06.798Z,1.40
2019-01-29T22:43:34.822Z,1.50
2019-01-29T22:46:03.159Z,1.60
2019-01-29T22:48:31.220Z,1.50
2019-01-29T22:50:59.253Z,1.40
2019-01-29T22:53:28.443Z,1.40
2019-01-29T22:55:56.444Z,1.30
2019-01-29T22:58:24.683Z,1.30
2019-01-29T23:01:31.546Z,1.20
2019-01-29T23:04:10.914Z,1.20
2019-01-29T23:06:54.086Z,1.10
2019-01-29T23:09:22.340Z,1.10
2019-01-29T23:11:50.472Z,1.10
2019-01-29T23:14:18.737Z,1.10
2019-01-29T23:16:46.783Z,1.10
2019-01-29T23:19:14.996Z,1.10
2019-01-29T23:21:43.069Z,1.10
2019-01-29T23:24:11.153Z,1.10
2019-01-29T23:26:39.318Z,1.10
2019-01-29T23:29:07.482Z,1.10
2019-01-29T23:31:36.482Z,1.10
2019-01-29T23:34:05.561Z,1.10
2019-01-29T23:36:33.594Z,1.00
2019-01-29T23:39:01.663Z,1.00
2019-01-29T23:41:30.892Z,1.10
2019-01-29T23:43:58.979Z,1.10
2019-01-29T23:46:27.047Z,1.10
2019-01-29T23:48:55.140Z,1.00
2019-01-29T23:51:23.275Z,1.00
2019-01-29T23:53:51.491Z,1.00
2019-01-29T23:56:19.563Z,1.00
2019-01-29T23:58:47.593Z,0.90
